If you wish to contribute or participate in the discussions about articles you are invited to join SKYbrary as a registered user

 Actions

Comox Valley Airport (Canadian Forces Base Comox)

From SKYbrary Wiki

CYQQ
Airport
ICAO: CYQQ
Summary
Name Comox Valley Airport (Canadian Forces Base Comox)
Region North America
Territory Canada CA.gif
Location Comox, British Columbia
Serving
Coordinates 49° 42' 39.00" N, 124° 53' 12.00" W
Runways
Designator Length Width Surface ROPS
12/30 3048 m10,000 ft
61 m200.131 ft
PEM yes/yes
18/36 1524 m5,000 ft
61 m200.131 ft
ASP yes/yes


METAR
Observation CYQQ 211000Z 18005KT 20SM -RA OVC009 09/08 A3004 RMK SC8 PCPN VRY LGT CIG VRB 6-12 SLP173
Station Comox, B. C.
Date/Time 21 October 2019 10:00:00
Wind direction 180°
Wind speed 05 kts
Lowest cloud amount overcast
Temperature 9°C
Dew point 8°C
Humidity 93%
QNH hPa
Weather condition light rain

BS
Tag(s) Bird Strike
RE
Tag(s) Crosswind Landings

Comox Valley Airport

ICAO: CYQQ IATA: YQQ

Description

Comox Valley Airport is a military aerodrome located on the east side of Vancouver Island. It has a commercial terminal which serves the communities of Comox, Courtenay, Cumberland and the surrounding area.

Climatology

Temperate Marine climate/Oceanic climate (Köppen climate classification Cfb). Moderately cool summer and comparatively warm winter.

Maps

Terrain

Loading map...

Airport Layout

Loading map...


Accidents & Serious Incidents at or in vicinity of CYQQ

None on SKYbrary